Time;durP1;ratioP1;P1;durP2;ratioP2;P2;SDS_P1;SDS_P2;PMS_P1;PMS_P2;Temp;Humidity;BMP_temperature;BMP_pressure;BME280_temperature;BME280_humidity;BME280_pressure;Samples;Min_cycle;Max_cycle;Signal;HPM_P1;HPM_P2
2023/01/29 00:02:45;;;;;;;37.30;25.87;;;2.60;99.90;;;;;;6225348;28;20472;-61
2023/01/29 00:05:49;;;;;;;34.43;23.47;;;2.50;99.90;;;;;;6225032;28;20614;-62
2023/01/29 00:08:53;;;;;;;39.60;25.00;;;2.50;99.90;;;;;;6224160;28;20979;-61
2023/01/29 00:11:56;;;;;;;36.67;23.90;;;2.50;99.90;;;;;;6224557;28;20495;-61
2023/01/29 00:14:59;;;;;;;29.30;21.67;;;2.50;99.90;;;;;;6224146;28;20468;-62
2023/01/29 00:18:02;;;;;;;34.93;22.60;;;2.60;99.90;;;;;;6224025;28;20833;-61
2023/01/29 00:21:10;;;;;;;35.93;24.47;;;2.60;99.90;;;;;;6224282;28;20472;-62
2023/01/29 00:24:13;;;;;;;30.90;21.57;;;2.60;99.90;;;;;;6229464;28;20900;-61
2023/01/29 00:27:16;;;;;;;32.20;22.10;;;2.50;99.90;;;;;;6234336;28;20472;-61
2023/01/29 00:30:20;;;;;;;35.10;24.20;;;2.60;99.90;;;;;;6226250;28;20471;-61
2023/01/29 00:33:23;;;;;;;32.30;22.77;;;2.60;99.90;;;;;;6224361;28;20990;-61
2023/01/29 00:36:28;;;;;;;37.20;23.80;;;2.60;99.90;;;;;;6224873;28;20963;-61
2023/01/29 00:39:37;;;;;;;34.13;24.13;;;2.60;99.90;;;;;;6224599;28;20472;-61
2023/01/29 00:46:11;;;;;;;36.30;23.50;;;2.60;99.90;;;;;;6215690;28;20854;-61
2023/01/29 00:49:14;;;;;;;38.27;25.07;;;2.60;99.90;;;;;;6224501;28;20502;-62
2023/01/29 00:52:24;;;;;;;37.77;24.30;;;2.60;99.90;;;;;;6224382;28;20482;-62
2023/01/29 00:55:27;;;;;;;32.43;23.23;;;2.60;99.90;;;;;;6224794;28;20469;-62
2023/01/29 00:58:33;;;;;;;33.53;23.20;;;2.70;99.90;;;;;;6224145;28;20830;-62
2023/01/29 01:04:57;;;;;;;32.70;23.83;;;2.70;99.90;;;;;;6224300;28;20550;-61
2023/01/29 01:08:01;;;;;;;35.60;24.13;;;2.80;99.90;;;;;;6224436;28;20480;-62
2023/01/29 01:11:05;;;;;;;33.50;23.50;;;2.80;99.90;;;;;;6224174;28;20440;-61
2023/01/29 01:14:08;;;;;;;31.67;23.50;;;2.70;99.90;;;;;;6224335;28;20448;-61
2023/01/29 01:17:12;;;;;;;31.47;23.10;;;2.60;99.90;;;;;;6224304;28;20444;-61
2023/01/29 01:20:15;;;;;;;35.97;24.90;;;2.70;99.90;;;;;;6224117;28;20495;-61
2023/01/29 01:23:20;;;;;;;32.00;21.33;;;2.70;99.90;;;;;;6224399;28;20448;-61
2023/01/29 01:26:24;;;;;;;38.40;25.20;;;2.70;99.90;;;;;;6226892;28;20468;-61
2023/01/29 01:29:27;;;;;;;30.60;21.70;;;2.60;99.90;;;;;;6228865;28;20472;-61
2023/01/29 01:32:30;;;;;;;32.80;23.50;;;2.60;99.90;;;;;;6228506;28;20479;-61
2023/01/29 01:35:33;;;;;;;33.73;22.60;;;2.70;99.90;;;;;;6228323;28;20474;-61
2023/01/29 01:38:43;;;;;;;33.60;22.97;;;2.60;99.90;;;;;;6228228;28;20474;-61
2023/01/29 01:41:46;;;;;;;31.80;21.73;;;2.60;99.90;;;;;;6228464;28;20478;-61
2023/01/29 01:44:55;;;;;;;34.03;23.43;;;2.60;99.90;;;;;;6228340;28;20472;-62
2023/01/29 01:48:04;;;;;;;34.27;23.90;;;2.60;99.90;;;;;;6223878;28;20491;-62
2023/01/29 01:51:07;;;;;;;32.77;24.03;;;2.70;99.90;;;;;;6228140;28;20557;-62
2023/01/29 01:54:15;;;;;;;33.97;24.60;;;2.80;99.90;;;;;;6228267;28;20476;-62
2023/01/29 01:57:24;;;;;;;35.53;22.00;;;2.80;99.90;;;;;;6228094;28;20477;-62
2023/01/29 02:00:28;;;;;;;33.60;23.87;;;2.80;99.90;;;;;;6227829;28;20487;-62
2023/01/29 02:10:19;;;;;;;32.13;21.07;;;2.80;99.90;;;;;;6226897;28;20480;-62
2023/01/29 02:13:23;;;;;;;31.70;21.37;;;2.80;99.90;;;;;;6226688;28;20470;-62
2023/01/29 02:16:26;;;;;;;35.93;21.30;;;2.80;99.90;;;;;;6226745;28;21010;-62
2023/01/29 02:19:46;;;;;;;30.93;24.13;;;2.70;99.90;;;;;;6226293;28;20487;-62
2023/01/29 02:23:15;;;;;;;34.13;22.33;;;2.70;99.90;;;;;;6226650;28;20531;-62
2023/01/29 02:26:32;;;;;;;28.97;20.10;;;2.70;99.90;;;;;;6226170;28;20452;-62
2023/01/29 02:29:47;;;;;;;26.60;21.33;;;2.70;99.90;;;;;;6226254;28;20476;-62
2023/01/29 02:33:06;;;;;;;31.40;22.40;;;2.80;99.90;;;;;;6226732;28;20464;-63
2023/01/29 02:36:19;;;;;;;29.10;20.80;;;2.60;99.90;;;;;;6225981;28;20784;-62
2023/01/29 02:39:38;;;;;;;33.93;22.40;;;2.70;99.90;;;;;;6225698;28;20484;-62
2023/01/29 02:42:48;;;;;;;33.83;21.70;;;2.70;99.90;;;;;;6226035;28;20476;-62
2023/01/29 02:46:06;;;;;;;26.03;20.67;;;2.80;99.90;;;;;;6226252;28;20491;-62
2023/01/29 02:49:17;;;;;;;26.17;20.30;;;2.80;99.90;;;;;;6225706;28;20817;-62
2023/01/29 02:52:23;;;;;;;34.87;22.77;;;2.80;99.90;;;;;;6225712;28;20999;-62
2023/01/29 02:55:33;;;;;;;31.30;21.63;;;2.70;99.90;;;;;;6225758;28;20472;-62
2023/01/29 02:58:41;;;;;;;28.53;22.77;;;2.80;99.90;;;;;;6225870;28;20495;-62
2023/01/29 03:01:48;;;;;;;34.13;23.33;;;2.70;99.90;;;;;;6225319;28;20845;-62
2023/01/29 03:04:59;;;;;;;34.00;22.60;;;2.80;99.90;;;;;;6225542;28;20475;-62
2023/01/29 03:08:09;;;;;;;32.50;20.90;;;2.70;99.90;;;;;;6225617;28;20471;-62
2023/01/29 03:11:14;;;;;;;30.63;20.73;;;2.70;99.90;;;;;;6226058;28;20437;-62
2023/01/29 03:14:24;;;;;;;31.27;22.03;;;2.70;99.90;;;;;;6226249;28;20424;-62
2023/01/29 03:17:37;;;;;;;31.10;21.97;;;2.70;99.90;;;;;;6226046;28;20456;-62
2023/01/29 03:20:46;;;;;;;35.27;24.03;;;2.70;99.90;;;;;;6225596;28;20482;-62
2023/01/29 03:34:07;;;;;;;29.10;21.47;;;2.70;99.90;;;;;;6225597;28;21023;-62
2023/01/29 03:37:17;;;;;;;29.97;19.93;;;2.80;99.90;;;;;;6225641;28;20758;-62
2023/01/29 03:40:21;;;;;;;31.83;22.17;;;2.80;99.90;;;;;;6225348;28;20491;-62
2023/01/29 03:43:34;;;;;;;34.37;21.30;;;2.80;99.90;;;;;;6225605;28;20484;-62
2023/01/29 03:46:44;;;;;;;33.50;22.07;;;2.80;99.90;;;;;;6225724;28;20538;-62
2023/01/29 03:49:57;;;;;;;27.90;20.47;;;2.80;99.90;;;;;;6224802;28;20476;-62
2023/01/29 03:53:08;;;;;;;29.50;21.50;;;2.90;99.90;;;;;;6225330;28;20479;-62
2023/01/29 03:56:22;;;;;;;27.97;20.67;;;2.80;99.90;;;;;;6225386;28;20436;-62
2023/01/29 03:59:34;;;;;;;32.43;22.20;;;2.80;99.90;;;;;;6225237;28;20522;-62
2023/01/29 04:02:43;;;;;;;32.03;24.17;;;2.80;99.90;;;;;;6224897;28;20472;-62
2023/01/29 04:05:57;;;;;;;27.97;20.83;;;2.80;99.90;;;;;;6225121;28;20472;-62
2023/01/29 04:09:04;;;;;;;34.27;23.20;;;2.70;99.90;;;;;;6224961;28;20800;-62
2023/01/29 04:12:09;;;;;;;35.07;23.00;;;2.70;99.90;;;;;;6225321;28;20587;-62
2023/01/29 04:15:15;;;;;;;33.40;22.03;;;2.60;99.90;;;;;;6224963;28;20530;-62
2023/01/29 04:18:18;;;;;;;31.90;23.20;;;2.60;99.90;;;;;;6225008;28;20888;-62
2023/01/29 04:21:24;;;;;;;35.10;23.37;;;2.60;99.90;;;;;;6224551;28;20484;-62
2023/01/29 04:24:28;;;;;;;32.00;22.10;;;2.50;99.90;;;;;;6225062;28;20464;-61
2023/01/29 04:27:41;;;;;;;28.83;22.17;;;2.50;99.90;;;;;;6224999;28;20468;-61
2023/01/29 04:30:52;;;;;;;34.80;23.97;;;2.50;99.90;;;;;;6224997;28;20472;-62
2023/01/29 04:34:06;;;;;;;33.40;23.30;;;2.50;99.90;;;;;;6224706;28;20476;-61
2023/01/29 04:37:15;;;;;;;37.40;25.03;;;2.50;99.90;;;;;;6224475;28;20477;-62
2023/01/29 04:40:25;;;;;;;36.60;27.07;;;2.50;99.90;;;;;;6223933;28;20472;-62
2023/01/29 04:43:35;;;;;;;31.50;24.07;;;2.50;99.90;;;;;;6224873;28;20785;-62
2023/01/29 04:46:48;;;;;;;35.07;22.83;;;2.60;99.90;;;;;;6224445;28;20473;-62
2023/01/29 04:50:00;;;;;;;34.17;24.50;;;2.60;99.90;;;;;;6224628;28;20602;-62
2023/01/29 04:53:10;;;;;;;35.47;23.30;;;2.60;99.90;;;;;;6237204;28;20468;-61
2023/01/29 04:56:21;;;;;;;33.70;21.10;;;2.60;99.90;;;;;;6227465;28;20444;-61
2023/01/29 04:59:29;;;;;;;31.10;21.63;;;2.60;99.90;;;;;;6224189;28;20461;-61
2023/01/29 05:02:37;;;;;;;29.60;20.70;;;2.70;99.90;;;;;;6228754;28;20469;-62
2023/01/29 05:05:42;;;;;;;28.93;21.23;;;2.70;99.90;;;;;;6228913;28;20478;-62
2023/01/29 05:08:49;;;;;;;34.33;21.50;;;2.60;99.90;;;;;;6228660;28;20475;-62
2023/01/29 05:11:53;;;;;;;31.93;24.13;;;2.60;99.90;;;;;;6229130;28;20474;-61
2023/01/29 05:15:00;;;;;;;25.97;19.73;;;2.60;99.90;;;;;;6229244;28;20491;-62
2023/01/29 05:18:07;;;;;;;33.53;20.90;;;2.60;99.90;;;;;;6229051;28;20487;-62
2023/01/29 05:21:10;;;;;;;32.63;20.97;;;2.60;99.90;;;;;;6228812;28;20475;-62
2023/01/29 05:24:18;;;;;;;32.93;20.50;;;2.60;99.90;;;;;;6227937;28;20475;-61
2023/01/29 05:30:49;;;;;;;31.10;22.13;;;2.60;99.90;;;;;;6228526;28;20480;-61
2023/01/29 05:33:52;;;;;;;31.23;21.27;;;2.60;99.90;;;;;;6228740;28;20554;-61
2023/01/29 05:36:55;;;;;;;30.50;21.60;;;2.60;99.90;;;;;;6228157;28;20467;-61
2023/01/29 05:40:00;;;;;;;28.73;20.97;;;2.50;99.90;;;;;;6227993;28;20475;-62
2023/01/29 05:43:04;;;;;;;28.53;19.67;;;2.50;99.90;;;;;;6227826;28;20497;-62
2023/01/29 05:46:07;;;;;;;31.87;21.10;;;2.50;99.90;;;;;;6228229;28;20948;-61
2023/01/29 05:49:10;;;;;;;30.23;21.67;;;2.50;99.90;;;;;;6227676;28;20817;-62
2023/01/29 05:52:14;;;;;;;31.83;21.30;;;2.30;99.90;;;;;;6227881;28;20468;-62
2023/01/29 05:55:18;;;;;;;33.03;22.70;;;2.20;99.90;;;;;;6227743;28;20991;-62
2023/01/29 05:58:21;;;;;;;25.13;20.90;;;2.10;99.90;;;;;;6227875;28;20480;-61
2023/01/29 06:01:26;;;;;;;31.53;21.90;;;2.10;99.90;;;;;;6221524;28;20476;-61
2023/01/29 06:04:29;;;;;;;33.33;21.63;;;2.10;99.90;;;;;;6203428;28;20473;-61
2023/01/29 06:07:33;;;;;;;32.33;23.70;;;2.00;99.90;;;;;;6203477;28;20895;-61
2023/01/29 06:10:38;;;;;;;34.10;22.87;;;2.00;99.90;;;;;;6203123;28;20477;-61
2023/01/29 06:13:41;;;;;;;32.60;23.43;;;2.00;99.90;;;;;;6203220;28;20468;-62
2023/01/29 06:16:44;;;;;;;27.17;21.70;;;2.00;99.90;;;;;;6203077;28;20485;-62
2023/01/29 06:19:47;;;;;;;35.60;24.20;;;1.90;99.90;;;;;;6202785;28;20492;-62
2023/01/29 06:22:50;;;;;;;34.90;23.47;;;2.00;99.90;;;;;;6202733;28;21176;-62
2023/01/29 06:25:59;;;;;;;31.27;21.30;;;1.90;99.90;;;;;;6208384;28;20472;-61
2023/01/29 06:29:02;;;;;;;31.37;21.10;;;2.00;99.90;;;;;;6226718;28;20812;-61
2023/01/29 06:32:06;;;;;;;34.20;22.47;;;2.00;99.90;;;;;;6226713;28;20471;-61
2023/01/29 06:35:10;;;;;;;30.20;21.20;;;2.00;99.90;;;;;;6227032;28;20771;-61
2023/01/29 06:38:13;;;;;;;36.60;23.43;;;2.10;99.90;;;;;;6226780;28;20969;-61
2023/01/29 06:41:21;;;;;;;32.10;22.37;;;2.20;99.90;;;;;;6226780;28;20429;-61
2023/01/29 06:44:24;;;;;;;31.93;21.70;;;2.20;99.90;;;;;;6226816;28;20476;-62
2023/01/29 06:47:28;;;;;;;27.40;20.83;;;2.20;99.90;;;;;;6226723;28;20467;-62
2023/01/29 06:50:31;;;;;;;33.20;21.73;;;2.30;99.90;;;;;;6226577;28;20483;-61
2023/01/29 06:53:36;;;;;;;26.57;21.13;;;2.30;99.90;;;;;;6227062;28;20468;-61
2023/01/29 06:56:40;;;;;;;32.27;22.57;;;2.40;99.90;;;;;;6226324;28;20983;-62
2023/01/29 06:59:43;;;;;;;29.60;21.27;;;2.40;99.90;;;;;;6226623;28;20480;-62
2023/01/29 07:02:49;;;;;;;32.83;21.90;;;2.40;99.90;;;;;;6226640;28;20487;-62
2023/01/29 07:05:53;;;;;;;33.67;22.47;;;2.50;99.90;;;;;;6219082;28;20483;-62
2023/01/29 07:08:56;;;;;;;37.33;24.77;;;2.50;99.90;;;;;;6225461;28;20484;-62
2023/01/29 07:12:01;;;;;;;32.53;21.30;;;2.60;99.90;;;;;;6226238;28;20479;-62
2023/01/29 07:15:05;;;;;;;31.83;20.23;;;2.60;99.90;;;;;;6226115;28;20962;-62
2023/01/29 07:18:11;;;;;;;30.90;21.40;;;2.70;99.90;;;;;;6226346;28;20487;-62
2023/01/29 07:21:15;;;;;;;27.07;20.87;;;2.80;99.90;;;;;;6226363;28;20468;-62
2023/01/29 07:24:18;;;;;;;31.93;21.70;;;2.90;99.90;;;;;;6225404;28;20472;-63
2023/01/29 07:27:23;;;;;;;32.90;21.60;;;2.90;99.90;;;;;;6225905;28;20622;-62
2023/01/29 07:30:26;;;;;;;29.43;23.03;;;3.10;99.90;;;;;;6225672;28;20476;-62
2023/01/29 07:33:29;;;;;;;30.70;23.27;;;3.10;99.90;;;;;;6225863;28;20464;-62
2023/01/29 07:36:32;;;;;;;29.60;21.43;;;3.20;99.90;;;;;;6225811;28;20555;-62
2023/01/29 07:39:36;;;;;;;33.70;23.10;;;3.20;99.90;;;;;;6220732;28;20487;-62
2023/01/29 07:42:42;;;;;;;31.60;22.80;;;3.10;99.90;;;;;;6225713;28;20972;-62
2023/01/29 07:45:46;;;;;;;34.43;22.67;;;3.10;99.90;;;;;;6202408;28;20469;-62
2023/01/29 07:48:49;;;;;;;35.43;23.07;;;3.20;99.90;;;;;;6201363;28;20555;-62
2023/01/29 07:51:52;;;;;;;28.43;20.70;;;3.20;99.90;;;;;;6201354;28;20996;-62
2023/01/29 07:54:55;;;;;;;29.40;21.33;;;3.20;99.90;;;;;;6201410;28;20468;-63
2023/01/29 07:58:01;;;;;;;32.07;21.70;;;3.30;99.90;;;;;;6201324;28;20970;-63
2023/01/29 08:01:07;;;;;;;27.37;20.00;;;3.30;99.90;;;;;;6204087;28;20488;-62
2023/01/29 08:04:10;;;;;;;29.10;22.43;;;3.30;99.90;;;;;;6225163;28;20480;-62
2023/01/29 08:07:13;;;;;;;31.33;20.20;;;3.30;99.90;;;;;;6213660;28;20477;-62
2023/01/29 08:10:17;;;;;;;28.53;21.10;;;3.20;99.90;;;;;;6209327;28;20953;-62
2023/01/29 08:13:22;;;;;;;27.30;21.00;;;3.20;99.90;;;;;;6206078;28;20500;-62
2023/01/29 08:16:25;;;;;;;30.20;20.63;;;3.10;99.90;;;;;;6200247;28;20491;-62
2023/01/29 08:19:28;;;;;;;33.13;22.10;;;3.20;99.90;;;;;;6200070;28;20488;-62
2023/01/29 08:22:32;;;;;;;33.83;22.63;;;3.20;99.90;;;;;;6200291;28;20941;-62
2023/01/29 08:25:36;;;;;;;28.50;21.07;;;3.30;99.90;;;;;;6203116;28;20480;-62
2023/01/29 08:28:41;;;;;;;28.57;21.47;;;3.30;99.90;;;;;;6224499;28;20480;-63
2023/01/29 08:31:44;;;;;;;30.30;21.83;;;3.50;99.90;;;;;;6224533;28;20483;-63
2023/01/29 08:34:47;;;;;;;26.53;20.90;;;3.70;99.90;;;;;;6225173;28;20478;-63
2023/01/29 08:37:54;;;;;;;30.10;21.43;;;3.80;99.90;;;;;;6230104;28;20467;-64
2023/01/29 08:40:57;;;;;;;27.17;20.57;;;3.70;99.90;;;;;;6230079;28;20487;-63
2023/01/29 08:44:03;;;;;;;30.30;21.37;;;3.90;99.90;;;;;;6230259;28;20476;-63
2023/01/29 08:47:06;;;;;;;26.93;21.17;;;3.90;99.90;;;;;;6230026;28;20562;-63
2023/01/29 08:50:11;;;;;;;28.13;21.73;;;4.10;99.90;;;;;;6229861;28;20539;-63
2023/01/29 08:53:14;;;;;;;25.80;20.07;;;4.30;99.90;;;;;;6229323;28;20463;-63
2023/01/29 08:56:17;;;;;;;25.07;20.17;;;4.50;99.90;;;;;;6229603;28;20509;-63
2023/01/29 08:59:22;;;;;;;25.90;19.13;;;4.70;99.90;;;;;;6229496;28;20468;-63
2023/01/29 09:02:25;;;;;;;19.13;14.90;;;4.90;99.90;;;;;;6228610;28;20466;-63
2023/01/29 09:05:28;;;;;;;21.97;17.70;;;5.00;99.90;;;;;;6229229;28;20535;-63
2023/01/29 09:08:31;;;;;;;21.20;18.90;;;5.20;99.90;;;;;;6229228;28;20979;-63
2023/01/29 09:11:34;;;;;;;21.63;17.00;;;5.40;99.90;;;;;;6229606;28;20468;-63
2023/01/29 09:14:39;;;;;;;18.20;14.23;;;5.80;99.90;;;;;;6229470;28;20478;-63
2023/01/29 09:17:42;;;;;;;18.20;13.97;;;6.20;99.90;;;;;;6229308;28;20478;-63
2023/01/29 09:20:46;;;;;;;15.33;12.30;;;6.60;99.90;;;;;;6231846;28;20472;-64
2023/01/29 09:23:49;;;;;;;15.83;12.77;;;7.00;99.90;;;;;;6239322;28;20487;-64
2023/01/29 09:26:52;;;;;;;16.80;11.97;;;7.30;99.90;;;;;;6233016;28;20475;-64
2023/01/29 09:29:56;;;;;;;14.60;11.70;;;7.50;99.10;;;;;;6229248;28;20486;-64
2023/01/29 09:33:00;;;;;;;15.80;12.17;;;7.60;99.10;;;;;;6228851;28;20774;-64
2023/01/29 09:36:04;;;;;;;14.33;10.47;;;7.60;98.10;;;;;;6229101;28;20475;-64
2023/01/29 09:39:07;;;;;;;13.07;11.73;;;7.60;97.30;;;;;;6228688;28;20480;-64
2023/01/29 09:42:18;;;;;;;11.67;8.77;;;7.40;96.80;;;;;;6228779;28;21006;-64
2023/01/29 09:45:26;;;;;;;13.93;10.00;;;7.20;96.40;;;;;;6227990;28;20472;-64
2023/01/29 09:48:34;;;;;;;12.57;10.10;;;7.10;96.70;;;;;;6228118;28;20487;-64
2023/01/29 09:51:41;;;;;;;10.23;8.80;;;7.20;96.30;;;;;;6228568;28;20476;-64
2023/01/29 09:54:54;;;;;;;13.77;10.17;;;7.10;95.40;;;;;;6228925;28;20465;-64
2023/01/29 09:58:01;;;;;;;12.67;10.67;;;7.00;95.80;;;;;;6228745;28;20480;-65
2023/01/29 10:01:13;;;;;;;13.00;10.47;;;7.00;96.10;;;;;;6228960;28;20777;-64
2023/01/29 10:04:33;;;;;;;13.57;11.60;;;6.90;96.10;;;;;;6229899;28;20488;-68
2023/01/29 10:07:58;;;;;;;12.53;9.87;;;6.70;96.00;;;;;;6225928;28;20495;-64
2023/01/29 10:11:09;;;;;;;12.53;9.63;;;6.70;96.00;;;;;;6227917;28;20570;-63
2023/01/29 10:14:19;;;;;;;11.73;10.40;;;6.50;96.40;;;;;;6228547;28;20433;-63
2023/01/29 10:17:45;;;;;;;10.33;7.90;;;6.60;96.70;;;;;;6227963;28;20440;-63
2023/01/29 10:20:58;;;;;;;9.80;7.90;;;7.60;96.90;;;;;;6227834;28;20991;-63
2023/01/29 10:24:12;;;;;;;9.30;8.27;;;7.70;94.30;;;;;;6227803;28;20947;-63
2023/01/29 10:27:17;;;;;;;43.80;24.90;;;7.80;94.30;;;;;;6228206;28;20476;-63
2023/01/29 10:30:30;;;;;;;30.17;21.50;;;8.10;94.10;;;;;;6228723;28;20479;-63
2023/01/29 10:33:40;;;;;;;14.57;12.67;;;10.30;93.00;;;;;;6227929;28;20472;-65
2023/01/29 10:37:15;;;;;;;35.23;28.87;;;13.20;82.20;;;;;;6227436;28;20547;-65
2023/01/29 10:40:21;;;;;;;14.57;13.37;;;13.30;73.10;;;;;;6227140;28;20801;-64
2023/01/29 10:43:34;;;;;;;11.43;10.23;;;12.40;71.70;;;;;;6227199;28;20479;-64
2023/01/29 10:46:56;;;;;;;14.63;13.27;;;11.20;72.10;;;;;;6226880;28;20983;-64
2023/01/29 10:50:25;;;;;;;14.60;13.13;;;10.00;75.80;;;;;;6227205;28;20476;-64
2023/01/29 10:53:41;;;;;;;13.93;12.63;;;9.10;82.20;;;;;;6227779;28;20456;-63
2023/01/29 10:56:54;;;;;;;14.30;11.67;;;8.10;85.20;;;;;;6227069;28;20456;-63
2023/01/29 11:00:08;;;;;;;13.33;11.33;;;7.60;88.30;;;;;;6226244;28;20479;-64
2023/01/29 11:03:16;;;;;;;13.23;11.10;;;7.40;90.50;;;;;;6227281;28;20467;-63
2023/01/29 11:06:33;;;;;;;13.00;11.60;;;7.30;91.50;;;;;;6226972;28;20469;-64
2023/01/29 11:09:42;;;;;;;11.37;10.13;;;7.40;92.20;;;;;;6226395;28;20790;-63
2023/01/29 11:12:46;;;;;;;12.60;10.83;;;7.50;91.60;;;;;;6226791;28;20467;-63
2023/01/29 11:15:52;;;;;;;14.87;12.57;;;7.40;91.10;;;;;;6226731;28;20483;-63
2023/01/29 11:18:58;;;;;;;23.23;15.80;;;7.20;91.50;;;;;;6226411;28;20485;-64
2023/01/29 11:22:03;;;;;;;19.63;13.33;;;7.10;92.30;;;;;;6217303;28;20468;-64
2023/01/29 11:25:16;;;;;;;24.93;19.70;;;7.00;92.20;;;;;;6226034;28;20475;-64
2023/01/29 11:28:36;;;;;;;14.00;11.73;;;6.90;93.20;;;;;;6201863;28;20817;-64
2023/01/29 11:31:40;;;;;;;30.30;20.07;;;7.20;92.70;;;;;;6201728;28;20477;-64
2023/01/29 11:35:00;;;;;;;74.73;46.93;;;7.40;92.70;;;;;;6201519;28;20476;-64
2023/01/29 11:38:18;;;;;;;66.43;46.23;;;6.90;92.60;;;;;;6201438;28;20484;-64
2023/01/29 11:41:24;;;;;;;101.27;49.40;;;6.10;94.00;;;;;;6201746;28;20878;-63
2023/01/29 11:44:31;;;;;;;92.97;46.20;;;5.90;94.50;;;;;;6201947;28;20465;-63
2023/01/29 11:47:35;;;;;;;28.17;16.50;;;5.80;94.80;;;;;;6201862;28;20766;-63
2023/01/29 11:50:38;;;;;;;33.43;22.80;;;5.70;95.10;;;;;;6201525;28;20788;-64
2023/01/29 11:53:46;;;;;;;21.20;17.17;;;5.50;96.00;;;;;;6201317;28;20957;-64
2023/01/29 11:56:50;;;;;;;25.70;18.13;;;5.30;96.80;;;;;;6202650;28;20469;-64
2023/01/29 11:59:55;;;;;;;28.07;19.50;;;4.90;97.50;;;;;;6201597;28;20487;-64
2023/01/29 12:03:06;;;;;;;28.57;21.87;;;4.80;98.40;;;;;;6220101;28;20483;-64
2023/01/29 12:06:18;;;;;;;25.23;14.93;;;5.00;98.50;;;;;;6225896;28;20968;-63
2023/01/29 12:09:26;;;;;;;22.57;16.80;;;4.90;98.40;;;;;;6225363;28;20486;-63
2023/01/29 12:12:32;;;;;;;46.73;27.60;;;5.00;98.50;;;;;;6226094;28;20550;-64
2023/01/29 12:15:37;;;;;;;25.17;17.57;;;5.00;98.20;;;;;;6227008;28;20463;-63
2023/01/29 12:18:43;;;;;;;24.67;17.53;;;4.90;98.40;;;;;;6225884;28;20490;-63
2023/01/29 12:21:50;;;;;;;40.93;28.93;;;5.00;98.50;;;;;;6225556;28;20483;-63
2023/01/29 12:25:00;;;;;;;37.40;23.20;;;4.70;99.10;;;;;;6221268;28;20465;-63
2023/01/29 12:28:10;;;;;;;18.30;15.20;;;4.70;98.80;;;;;;6225564;28;21000;-64
2023/01/29 12:31:25;;;;;;;19.60;15.30;;;4.60;98.40;;;;;;6225418;28;20809;-64
2023/01/29 12:34:40;;;;;;;16.40;14.57;;;4.50;98.80;;;;;;6225504;28;20813;-64
2023/01/29 12:37:51;;;;;;;16.60;12.93;;;4.60;99.00;;;;;;6225302;28;20484;-65
2023/01/29 12:40:59;;;;;;;18.37;13.30;;;4.90;98.60;;;;;;6225279;28;20534;-64
2023/01/29 12:44:12;;;;;;;21.50;15.20;;;5.00;98.80;;;;;;6225535;28;20475;-63
2023/01/29 12:47:19;;;;;;;13.20;11.37;;;4.70;98.20;;;;;;6225104;28;20933;-64
2023/01/29 12:50:28;;;;;;;16.60;12.90;;;4.80;98.10;;;;;;6224709;28;20906;-63
2023/01/29 12:53:37;;;;;;;15.57;13.70;;;4.80;98.40;;;;;;6224770;28;20831;-63
2023/01/29 12:56:46;;;;;;;13.07;11.77;;;4.70;98.00;;;;;;6226535;28;20467;-63
2023/01/29 12:59:55;;;;;;;14.83;13.33;;;4.70;98.60;;;;;;6227900;28;20548;-63
2023/01/29 13:03:04;;;;;;;15.97;14.13;;;4.60;98.80;;;;;;6225661;28;20472;-63
2023/01/29 13:06:10;;;;;;;14.97;12.77;;;4.60;99.10;;;;;;6224782;28;20479;-63
2023/01/29 13:09:17;;;;;;;16.10;12.20;;;4.50;99.00;;;;;;6225207;28;20484;-64
2023/01/29 13:12:24;;;;;;;18.83;12.40;;;4.40;99.20;;;;;;6224619;28;21043;-64
2023/01/29 13:15:34;;;;;;;14.00;11.97;;;4.40;99.50;;;;;;6225010;28;20464;-64
2023/01/29 13:18:43;;;;;;;15.57;12.90;;;4.50;99.40;;;;;;6224336;28;20850;-63
2023/01/29 13:21:47;;;;;;;15.67;13.67;;;4.50;99.20;;;;;;6226247;28;20478;-63
2023/01/29 13:24:53;;;;;;;16.97;13.97;;;4.40;99.80;;;;;;6229254;28;20924;-64
2023/01/29 13:28:17;;;;;;;43.27;27.63;;;4.20;99.90;;;;;;6228614;28;20471;-64
2023/01/29 13:31:30;;;;;;;28.27;19.20;;;4.00;99.90;;;;;;6228878;28;20480;-64
2023/01/29 13:34:37;;;;;;;15.27;12.47;;;3.80;99.90;;;;;;6228826;28;20475;-64
2023/01/29 13:37:47;;;;;;;13.30;11.40;;;3.90;99.90;;;;;;6228272;28;20959;-64
2023/01/29 13:40:51;;;;;;;20.33;15.77;;;3.90;99.90;;;;;;6228690;28;20465;-64
2023/01/29 13:43:56;;;;;;;14.93;12.83;;;3.90;99.90;;;;;;6228656;28;20483;-64
2023/01/29 13:47:02;;;;;;;17.23;13.50;;;3.90;99.90;;;;;;6228369;28;20991;-64
2023/01/29 13:50:08;;;;;;;18.60;14.83;;;4.00;99.90;;;;;;6228591;28;20545;-63
2023/01/29 13:53:22;;;;;;;16.47;11.90;;;4.10;99.90;;;;;;6228397;28;20458;-63
2023/01/29 13:56:47;;;;;;;15.07;11.90;;;4.20;99.90;;;;;;6227988;28;20420;-64
2023/01/29 13:59:55;;;;;;;15.80;14.20;;;4.10;99.90;;;;;;6225928;28;20443;-64
2023/01/29 14:03:50;;;;;;;16.40;14.53;;;4.20;99.90;;;;;;6227849;28;20236;-65
2023/01/29 14:07:50;;;;;;;53.67;37.23;;;4.20;99.90;;;;;;6227809;28;20477;-64
2023/01/29 14:11:36;;;;;;;20.67;18.43;;;4.20;99.90;;;;;;6227624;28;20515;-63
2023/01/29 14:15:03;;;;;;;15.90;14.10;;;4.00;99.90;;;;;;6227787;28;20464;-64
2023/01/29 14:18:25;;;;;;;15.30;13.70;;;3.90;99.90;;;;;;6203158;28;20487;-64
2023/01/29 14:21:31;;;;;;;15.07;13.37;;;3.80;99.90;;;;;;6201803;28;20793;-63
2023/01/29 14:24:37;;;;;;;17.40;15.40;;;3.80;99.90;;;;;;6202896;28;20478;-64
2023/01/29 14:27:46;;;;;;;16.43;12.50;;;3.70;99.90;;;;;;6223027;28;20568;-64
2023/01/29 14:30:50;;;;;;;17.30;13.40;;;3.70;99.90;;;;;;6227809;28;20590;-64
2023/01/29 14:34:02;;;;;;;18.20;15.33;;;3.60;99.90;;;;;;6218299;28;20472;-63
2023/01/29 14:37:21;;;;;;;14.13;12.63;;;3.60;99.90;;;;;;6227746;28;20468;-63
2023/01/29 14:40:29;;;;;;;18.00;12.37;;;3.70;99.90;;;;;;6230831;28;20476;-64
2023/01/29 14:43:33;;;;;;;14.37;12.27;;;3.60;99.90;;;;;;6233107;28;20468;-63
2023/01/29 14:46:44;;;;;;;13.80;11.70;;;3.50;99.90;;;;;;6228751;28;21083;-63
2023/01/29 14:49:53;;;;;;;15.87;12.30;;;3.50;99.90;;;;;;6227005;28;20516;-63
2023/01/29 14:53:03;;;;;;;13.20;11.50;;;3.50;99.90;;;;;;6227174;28;20472;-63
2023/01/29 14:56:18;;;;;;;16.83;11.87;;;3.50;99.90;;;;;;6227029;28;20789;-64
2023/01/29 14:59:27;;;;;;;19.50;12.50;;;3.40;99.90;;;;;;6225359;28;20476;-64
2023/01/29 15:02:38;;;;;;;13.40;11.33;;;3.40;99.90;;;;;;6225883;28;20475;-63
2023/01/29 15:05:43;;;;;;;18.53;12.00;;;3.30;99.90;;;;;;6226154;28;20905;-63
2023/01/29 15:08:52;;;;;;;17.97;11.73;;;3.30;99.90;;;;;;6226840;28;20487;-64
2023/01/29 15:12:06;;;;;;;14.53;11.87;;;3.20;99.90;;;;;;6226771;28;20487;-63
2023/01/29 15:15:17;;;;;;;20.50;14.60;;;3.30;99.90;;;;;;6226555;28;20476;-63
2023/01/29 15:18:31;;;;;;;20.60;15.57;;;3.40;99.90;;;;;;6226420;28;20492;-64
2023/01/29 15:21:34;;;;;;;15.57;12.73;;;3.30;99.90;;;;;;6227506;28;20472;-64
2023/01/29 15:24:39;;;;;;;18.87;14.97;;;3.30;99.90;;;;;;6226286;28;20484;-63
2023/01/29 15:27:47;;;;;;;17.10;13.63;;;3.40;99.90;;;;;;6226561;28;20468;-62
2023/01/29 15:30:54;;;;;;;16.40;13.73;;;3.40;99.90;;;;;;6226292;28;20472;-63
2023/01/29 15:34:01;;;;;;;18.50;13.93;;;3.50;99.90;;;;;;6226797;28;20468;-63
2023/01/29 15:37:06;;;;;;;16.70;13.97;;;3.50;99.90;;;;;;6217546;28;20468;-63
2023/01/29 15:40:16;;;;;;;16.40;13.20;;;3.50;99.90;;;;;;6225749;28;20484;-63
2023/01/29 15:43:28;;;;;;;17.60;13.00;;;3.60;99.90;;;;;;6225953;28;20472;-64
2023/01/29 15:46:35;;;;;;;14.10;12.43;;;3.50;99.90;;;;;;6226104;28;20948;-64
2023/01/29 15:49:40;;;;;;;17.10;14.03;;;3.50;99.90;;;;;;6225913;28;20480;-64
2023/01/29 15:52:50;;;;;;;24.37;15.70;;;3.40;99.90;;;;;;6226462;28;20472;-64
2023/01/29 15:55:55;;;;;;;24.70;19.27;;;3.40;99.90;;;;;;6225829;28;20482;-64
2023/01/29 15:59:05;;;;;;;26.43;18.40;;;3.40;99.90;;;;;;6229824;28;20995;-64
2023/01/29 16:02:38;;;;;;;22.47;15.70;;;3.40;99.90;;;;;;6230678;28;20702;-64
2023/01/29 16:05:42;;;;;;;17.80;13.60;;;3.40;99.90;;;;;;6220080;28;20468;-63
2023/01/29 16:08:51;;;;;;;16.30;14.50;;;3.50;99.90;;;;;;6226737;28;20574;-63
2023/01/29 16:11:58;;;;;;;26.93;21.40;;;3.50;99.90;;;;;;6225572;28;20468;-63
2023/01/29 16:15:06;;;;;;;18.27;14.60;;;3.50;99.90;;;;;;6226117;28;20464;-63
2023/01/29 16:18:21;;;;;;;19.53;13.60;;;3.50;99.90;;;;;;6225574;28;20476;-64
2023/01/29 16:21:31;;;;;;;17.23;13.07;;;3.40;99.90;;;;;;6224540;28;20480;-64
2023/01/29 16:24:38;;;;;;;17.07;14.80;;;3.50;99.90;;;;;;6225360;28;20486;-64
2023/01/29 16:27:44;;;;;;;18.70;13.67;;;3.50;99.90;;;;;;6225440;28;20484;-65
2023/01/29 16:30:57;;;;;;;18.03;13.53;;;3.50;99.90;;;;;;6225255;28;20468;-64
2023/01/29 16:34:10;;;;;;;16.63;12.30;;;3.50;99.90;;;;;;6224149;28;20487;-64